Motte Rimrock Reserve, California Weather observations

Data are for 10 minute period ending at time listed.
 Day   Time   Solar   Ave.   Ave.  Ave.  Vector  Max.   Baro.   Total    
  of    of     Rad.   Air    Rel.  Wind   Wind   Wind  Press.  Precip.   
Year   Day            Temp.  Hum.  Speed  Dir.   Gust                    
2017   (PST)  Kw/m2    F      %     mph   deg.    mph    mb.     in.     
-------------------------------------------------------------------------
  84   18:40   0.00   55.3    75   11.1   310    13.4   947.9    0.00 
  84   18:50   0.00   55.1    77   12.3   312    15.4   947.8    0.00 
  84   19:00   0.00   54.6    79   11.4   314    14.5   947.9    0.00 
  84   19:10   0.00   54.5    81   12.7   316    15.2   948.1    0.00 
  84   19:20   0.00   54.1    83    9.8   313    14.5   948.2    0.00 
  84   19:30   0.00   53.6    84    4.8   312     9.9   948.4    0.00 
  84   19:40   0.00   53.1    85    3.5   284     7.5   948.6    0.00 
  84   19:50   0.00   52.2    87    5.5   292     9.1   948.6    0.00 
  84   20:00   0.00   51.9    88    6.0   292     9.3   948.7    0.00 
  84   20:10   0.00   51.8    88    1.8   271     5.7   948.7    0.00 
  84   20:20   0.00   51.8    88    1.2   282     2.4   948.8    0.00 
  84   20:30   0.00   51.7    88    2.1   269     3.1   948.8    0.00 
  84   20:40   0.00   51.4    88    3.6   275     5.8   948.9    0.00 
  84   20:50   0.00   50.7    89    7.0   298     8.2   948.8    0.00 
  84   21:00   0.00   51.2    89    8.6   300    10.8   948.8    0.00 
  84   21:10   0.00   51.3    89    8.2   305    10.0   948.9    0.00 
  84   21:20   0.00   51.2    89    5.9   317     8.5   948.8    0.00 
  84   21:30   0.00   51.0    89    3.3   346     5.3   948.8    0.00 
  84   21:40   0.00   51.3    89    2.1    10     3.7   948.7    0.00 
  84   21:50   0.00   51.4    89    2.1   357     3.8   948.8    0.00 
  84   22:00   0.00   51.4    89    1.7   290     3.1   948.7    0.00 
  84   22:10   0.00   50.5    90    4.3   274     6.6   948.7    0.00 
  84   22:20   0.00   50.4    91    6.5   288     8.0   948.6    0.00 
  84   22:30   0.00   50.6    92    6.1   289     8.1   948.6    0.00 
  84   22:40   0.00   50.2    92    5.1   270     6.7   948.6    0.00 
  84   22:50   0.00   49.9    92    5.7   294     7.9   948.6    0.00 
  84   23:00   0.00   49.6    93    5.7   294     7.5   948.5    0.00 
  84   23:10   0.00   49.9    94    6.2   295     8.4   948.4    0.00 
  84   23:20   0.00   50.1    94    5.9   289     8.6   948.4    0.00 
  84   23:30   0.00   50.2    94    5.6   296     7.5   948.4    0.00 
  84   23:40   0.00   50.1    94    5.2   310     7.4   948.4    0.00 
  84   23:50   0.00   49.7    94    4.5   310     5.6   948.3    0.00 
  85    0:00   0.00   49.5    95    4.0   300     5.6   948.3    0.00 
  85    0:10   0.00   49.1    95    2.4   290     4.5   948.3    0.00 
  85    0:20   0.00   48.5    95    4.7   285     5.6   948.3    0.00 
  85    0:30   0.00   48.0    95    4.8   298     6.4   948.2    0.00 
  85    0:40   0.00   48.4    96    7.0   302     7.9   948.3    0.00 
  85    0:50   0.00   48.5    96    6.8   307     8.3   948.1    0.00 
  85    1:00   0.00   48.5    96    4.8   313     6.9   947.8    0.00 
  85    1:10   0.00   48.1    96    4.7   305     6.1   947.8    0.00 
  85    1:20   0.00   48.0    96    5.1   292     6.1   947.8    0.00 
  85    1:30   0.00   48.0    96    4.8   290     5.8   947.7    0.00 
  85    1:40   0.00   48.1    96    4.8   298     5.6   947.7    0.00 
  85    1:50   0.00   48.5    94    3.7   295     4.8   947.7    0.00 
  85    2:00   0.00   48.8    92    3.2   291     3.9   947.7    0.00 
  85    2:10   0.00   48.9    92    2.1   277     3.4   947.5    0.00 
  85    2:20   0.00   48.6    92    3.4   288     4.0   947.4    0.00 
  85    2:30   0.00   49.6    89    2.2   286     2.8   947.3    0.00 
  85    2:40   0.00   49.7    88    1.5   294     2.3   947.2    0.00 
  85    2:50   0.00   50.1    88    0.7   294     0.9   947.2    0.00 
  85    3:00   0.00   50.1    90    1.1   255     2.8   947.2    0.00 
  85    3:10   0.00   49.7    91    2.3   245     3.1   947.3    0.00 
  85    3:20   0.00   49.1    92    2.7   240     3.8   947.4    0.00 
  85    3:30   0.00   48.5    92    2.0   242     2.9   947.4    0.00 
  85    3:40   0.00   48.4    94    1.9   238     2.4   947.4    0.00 
  85    3:50   0.00   48.4    94    2.0   206     2.4   947.4    0.00 
  85    4:00   0.00   48.5    95    1.7   198     2.4   947.5    0.00 
  85    4:10   0.00   48.8    95    0.6   202     1.7   947.5    0.00 
  85    4:20   0.00   48.9    95    0.2   202     0.8   947.5    0.00 
  85    4:30   0.00   49.3    95    0.5    92     2.1   947.5    0.00 
  85    4:40   0.00   48.9    94    3.1    76     3.7   947.6    0.00 
  85    4:50   0.00   48.8    94    2.3    73     3.7   947.7    0.00 
  85    5:00   0.00   49.3    93    2.3    68     3.4   947.7    0.00 
  85    5:10   0.00   49.5    92    2.2   109     2.9   947.8    0.00 
  85    5:20   0.00   49.3    93    0.8   127     2.0   947.8    0.00 
  85    5:30   0.00   49.5    93    1.5   160     3.0   947.7    0.00 
  85    5:40   0.00   49.0    94    2.9   193     3.9   947.7    0.00 
  85    5:50   0.00   48.6    94    1.8   226     3.4   947.8    0.00 
  85    6:00   0.00   48.9    95    1.1   232     1.8   947.9    0.00 
  85    6:10   0.01   48.9    95    1.6   260     2.9   948.1    0.00 
  85    6:20   0.02   49.0    96    1.1   270     1.9   948.2    0.00 
  85    6:30   0.03   49.5    96    1.0   230     1.9   948.3    0.00 
  85    6:40   0.05   49.9    96    0.2   219     1.2   948.4    0.00 
  85    6:50   0.06   50.3    95    0.3   217     1.4   948.5    0.00 
  85    7:00   0.07   50.6    94    1.5   150     2.4   948.4    0.00 
  85    7:10   0.09   51.2    94    1.6   147     2.9   948.4    0.00 
  85    7:20   0.10   51.5    93    0.7   185     1.5   948.6    0.00 
  85    7:30   0.10   51.9    92    1.0   153     2.8   948.7    0.00 
  85    7:40   0.11   52.0    91    3.1   130     5.4   948.7    0.00 
  85    7:50   0.17   52.1    91    3.4   136     5.4   948.9    0.00 
  85    8:00   0.26   52.8    89    2.7   159     5.3   948.9    0.00 
  85    8:10   0.38   53.9    86    3.0   157     5.3   948.8    0.00 
  85    8:20   0.40   54.8    81    5.0   142     8.2   948.8    0.00 
  85    8:30   0.15   53.3    84    4.0   137     6.6   948.9    0.00 
  85    8:40   0.57   54.9    78    3.4   157     6.6   948.9    0.00 
  85    8:50   0.60   57.2    72    3.5   131     7.8   949.2    0.00 
  85    9:00   0.32   56.6    71    3.6   156     6.4   949.4    0.00 
  85    9:10   0.34   55.9    73    2.8   222     4.8   949.6    0.00 
  85    9:20   0.74   58.1    66    2.5   175     6.2   949.8    0.00 
  85    9:30   0.57   59.3    64    3.4   216     7.5   949.9    0.00 
  85    9:40   0.71   59.1    64    4.1   208     7.7   950.0    0.00 
  85    9:50   0.55   60.0    62    3.7   275    12.2   950.1    0.00 
  85   10:00   0.48   60.0    62    4.2   296     9.0   950.2    0.00 
  85   10:10   0.74   60.3    61    3.0   226     6.1   950.3    0.00 
  85   10:20   0.95   61.9    57    4.6   263     8.1   950.2    0.00 
  85   10:30   0.74   62.6    55    3.9   260     8.3   950.3    0.00 
  85   10:40   0.26   60.3    58    4.1   300    12.9   950.3    0.00 
  85   10:50   0.57   60.9    55    5.7   249    12.2   950.2    0.00 
  85   11:00   0.46   62.2    54    5.6   306     9.6   950.1    0.00 
  85   11:10   0.29   60.8    54    5.2   329    10.0   949.9    0.00 
  85   11:20   0.73   61.8    52    4.5   316     8.4   949.8    0.00 
  85   11:30   1.03   63.9    50    4.6   319     8.8   949.8    0.00 
  85   11:40   0.76   64.7    49    7.3   304    14.5   949.8    0.00 
  85   11:50   0.76   63.2    51    7.1   312    11.0   949.7    0.00 
  85   12:00   0.43   62.6    51    4.4   325     8.8   949.6    0.00 
  85   12:10   0.47   63.0    52    7.0   310    13.4   949.6    0.00 
  85   12:20   0.60   63.1    52    9.0   276    17.1   949.5    0.00 
  85   12:30   0.89   64.3    50    8.6   293    12.9   949.5    0.00 
  85   12:40   0.92   64.8    49    8.1   272    12.5   949.4    0.00 
  85   12:50   0.92   65.1    48   10.4   272    16.5   949.3    0.00 
  85   13:00   0.86   64.9    48    8.6   274    13.7   949.3    0.00 
  85   13:10   0.86   66.3    46    8.2   307    16.2   949.2    0.00 
  85   13:20   0.82   65.6    47    8.2   271    11.8   949.1    0.00 
  85   13:30   0.81   65.7    47    4.1   278     9.8   949.0    0.00 
  85   13:40   0.76   66.3    46    5.2   252    12.1   948.9    0.00 
  85   13:50   0.79   67.2    45    6.4   288    13.0   948.9    0.00 
  85   14:00   0.49   65.7    47    5.1   285     9.3   949.0    0.00 
  85   14:10   0.62   65.2    48   10.1   290    16.7   948.8    0.00 
  85   14:20   0.55   65.8    46   10.2   294    15.8   948.7    0.00 
  85   14:30   0.25   63.8    49   11.1   304    15.9   948.7    0.00 
  85   14:40   0.67   65.1    48    9.9   302    15.5   948.6    0.00 
  85   14:50   0.65   66.1    47   11.4   313    16.0   948.6    0.00 
  85   15:00   0.61   66.2    47   11.5   303    17.5   948.6    0.00 
  85   15:10   0.59   65.8    48   10.6   314    17.1   948.6    0.00 
  85   15:20   0.53   65.3    49   13.2   295    17.7   948.6    0.00 
  85   15:30   0.50   65.4    49   14.7   303    20.8   948.6    0.00 
  85   15:40   0.47   64.6    50   13.9   306    17.5   948.6    0.00 
  85   15:50   0.43   64.2    50   14.6   303    20.9   948.5    0.00 
  85   16:00   0.39   63.7    52   14.7   300    20.0   948.5    0.00 
  85   16:10   0.35   63.4    53   13.7   300    19.4   948.5    0.00 
  85   16:20   0.32   63.0    54   14.0   294    19.9   948.3    0.00 
  85   16:30   0.29   63.0    54   11.3   298    16.0   948.3    0.00 
  85   16:40   0.25   62.9    54   11.2   303    16.1   948.3    0.00 
  85   16:50   0.22   62.8    54   11.2   294    15.6   948.2    0.00 
  85   17:00   0.18   62.2    55   10.3   306    15.9   948.2    0.00 
  85   17:10   0.15   62.4    54    9.9   292    15.0   948.2    0.00 
  85   17:20   0.12   61.6    56   10.2   306    13.1   948.2    0.00 
  85   17:30   0.08   61.3    57    8.5   302    12.3   948.2    0.00 
  85   17:40   0.04   60.2    59    9.8   302    13.6   948.1    0.00 
  85   17:50   0.03   59.6    61    9.0   304    12.0   948.0    0.00 
  85   18:00   0.01   58.9    63    9.5   307    11.7   948.0    0.00 
  85   18:10   0.00   58.2    65    8.7   304    11.0   947.9    0.00 
  85   18:20   0.00   57.6    67    9.9   305    13.4   947.9    0.00 
  85   18:30   0.00   57.2    69   11.3   306    15.1   947.9    0.00 

Return to Motte Rimrock Reserve graphs page.


Western Regional Climate Center,wrcc@dri.edu